Wilson Gaeta — 8PTS — position and weather

sailwx.info

Track history (hours):
 
Tides and Currents Weather Stations Pressure Air Temp Water Temp Dewpoint Dewpoint Depression Visibility Wind Speed Wind Dir Waves Ship Positions

Wilson Gaeta

Last reported at 2017-Aug-19 00:31 UTC. Time now 2017-Aug-19 09:29 UTC.
Position N 55°40' E 018°04'.

Length 88 m; draft 3.7 m.

Type: Ship. MMSI: 314237000.

Date/timePositionNaut miles runAvg speedWind from/ knotsBaromVisibWave heightAir tempDewpointWater temp
2017-Aug-19 00:31N 55°40' E 018°04'0 9.1
2017-Aug-19 00:30N 55°40' E 018°04'5 9.2
2017-Aug-19 00:00N 55°42' E 018°11'5 9.2
2017-Aug-18 23:30N 55°45' E 018°19'101 3.9
2017-Aug-17 21:16N 56°31' E 020°60'149 4.1
2017-Aug-16 08:33N 55°16' E 017°10'0 8.4
2017-Aug-16 08:30N 55°16' E 017°10'35 8.8
2017-Aug-16 04:30N 54°57' E 016°18'5 8.4
2017-Aug-16 03:50N 54°53' E 016°11'3 8.5
2017-Aug-16 03:30N 54°51' E 016°07'4 8.4
2017-Aug-16 03:00N 54°49' E 016°01'9 8.3
2017-Aug-16 01:54N 54°43' E 015°49'3 8.3
2017-Aug-16 01:30N 54°41' E 015°45'4 8.5
2017-Aug-16 01:00N 54°38' E 015°39'4 8.6
2017-Aug-16 00:30N 54°35' E 015°33'4 8.5
2017-Aug-16 00:00N 54°33' E 015°27'7 8.5
2017-Aug-15 23:10N 54°28' E 015°18'4 8.4
2017-Aug-15 22:41N 54°26' E 015°12'2 8.4
2017-Aug-15 22:29N 54°25' E 015°10'4 8.4
2017-Aug-15 21:58N 54°22' E 015°04'43 7.0
2017-Aug-15 15:52N 53°47' E 014°22'3 9.4
2017-Aug-15 15:30N 53°44' E 014°26'510.0
2017-Aug-15 15:00N 53°40' E 014°31'510.1
2017-Aug-15 14:30N 53°36' E 014°35'2 0.1
2017-Aug-14 02:49N 53°34' E 014°36'1 2.7
2017-Aug-14 02:30N 53°34' E 014°36'4 8.7
2017-Aug-14 02:00N 53°39' E 014°34'5 9.3
2017-Aug-14 01:30N 53°42' E 014°29'5 9.8
2017-Aug-14 01:01N 53°46' E 014°24'79 8.3
2017-Aug-13 15:32N 54°41' E 012°47'010.4
2017-Aug-13 15:31N 54°41' E 012°46'510.2
2017-Aug-13 15:00N 54°39' E 012°38'1810.3
2017-Aug-13 13:17N 54°28' E 012°14'310.6
2017-Aug-13 13:00N 54°25' E 012°11'5 9.8
2017-Aug-13 12:31N 54°24' E 012°03'810.0
2017-Aug-13 11:40N 54°25' E 011°48'2 9.9
2017-Aug-13 11:30N 54°25' E 011°46'510.3
2017-Aug-13 11:01N 54°27' E 011°38'510.6
2017-Aug-13 10:31N 54°29' E 011°30'510.6
2017-Aug-13 10:00N 54°32' E 011°21'510.6
2017-Aug-13 09:30N 54°34' E 011°13'510.1
2017-Aug-13 09:00N 54°35' E 011°05'510.4
2017-Aug-13 08:30N 54°35' E 010°56'510.2
2017-Aug-13 08:00N 54°34' E 010°47'510.1
2017-Aug-13 07:30N 54°34' E 010°38'510.0
2017-Aug-13 07:00N 54°32' E 010°30'48 6.5
2017-Aug-12 23:40N 54°08' E 009°20'2 7.5
2017-Aug-12 23:27N 54°06' E 009°20'3 7.6
2017-Aug-12 23:00N 54°03' E 009°18'4 8.2
2017-Aug-12 22:30N 53°59' E 009°16'4 7.1
2017-Aug-12 22:00N 53°56' E 009°13'3 6.8
2017-Aug-12 21:31N 53°54' E 009°09'1 1.6
2017-Aug-12 21:01N 53°53' E 009°08'3 6.4
2017-Aug-12 20:30N 53°52' E 009°02'3 6.1
2017-Aug-12 20:00N 53°51' E 008°58'3 6.4
2017-Aug-12 19:30N 53°50' E 008°52'3 6.6
2017-Aug-12 19:00N 53°50' E 008°47'3 6.7
2017-Aug-12 18:30N 53°53' E 008°43'4 7.1
2017-Aug-12 18:00N 53°56' E 008°40'3 6.9
2017-Aug-12 17:30N 53°58' E 008°35'4 7.5
2017-Aug-12 16:57N 53°59' E 008°28'4 7.8
2017-Aug-12 16:30N 53°59' E 008°22'5 8.6
2017-Aug-12 15:59N 53°59' E 008°14'4 9.3
2017-Aug-12 15:30N 53°59' E 008°07'5 9.8
2017-Aug-12 15:00N 53°58' E 007°59'9511.1
2017-Aug-12 06:27N 53°33' E 005°24'1210.1
2017-Aug-12 05:17N 53°29' E 005°05'3 9.5
2017-Aug-12 05:00N 53°28' E 005°01'5 9.4
2017-Aug-12 04:31N 53°26' E 004°54'54 8.8
2017-Aug-11 22:21N 52°41' E 004°04'3 9.1
2017-Aug-11 21:59N 52°38' E 004°02'4 9.3
2017-Aug-11 21:30N 52°34' E 003°58'5 9.4
2017-Aug-11 20:59N 52°30' E 003°55'510.0
2017-Aug-11 20:29N 52°25' E 003°53'510.3
2017-Aug-11 19:58N 52°20' E 003°52'510.4
2017-Aug-11 19:29N 52°15' E 003°53'510.7
2017-Aug-11 19:01N 52°10' E 003°54'510.3
2017-Aug-11 18:30N 52°05' E 003°57'510.1
2017-Aug-11 18:00N 52°00' E 004°02'4 8.3
2017-Aug-11 17:30N 51°57' E 004°05'0 0.3
2017-Aug-11 17:00N 51°57' E 004°05'0 0.0
2017-Aug-11 16:30N 51°57' E 004°05'0 0.0
2017-Aug-11 16:00N 51°57' E 004°05'0 0.0
2017-Aug-11 15:30N 51°57' E 004°05'0 0.0
2017-Aug-11 15:00N 51°57' E 004°05'0 0.0
2017-Aug-11 14:30N 51°57' E 004°05'0 0.0
2017-Aug-11 13:30N 51°57' E 004°05'0 0.0
2017-Aug-11 13:00N 51°57' E 004°05'0 0.0
2017-Aug-11 12:30N 51°57' E 004°05'0 0.0
2017-Aug-11 12:00N 51°57' E 004°05'0 0.0
2017-Aug-11 11:30N 51°57' E 004°05'0 0.0
2017-Aug-11 11:00N 51°57' E 004°05'0 0.0
2017-Aug-11 10:30N 51°57' E 004°05'0 0.0
2017-Aug-11 10:00N 51°57' E 004°05'0 0.0
2017-Aug-11 09:30N 51°57' E 004°05'0 0.0
2017-Aug-11 09:00N 51°57' E 004°05'0 0.0
2017-Aug-11 08:30N 51°57' E 004°05'0 0.0
2017-Aug-11 08:00N 51°57' E 004°05'0 0.0
2017-Aug-11 07:30N 51°57' E 004°05'0 0.0
2017-Aug-11 07:00N 51°57' E 004°05'0 0.0
2017-Aug-11 06:30N 51°57' E 004°05'0 0.0
2017-Aug-11 05:59N 51°57' E 004°05'0 0.0
2017-Aug-11 05:30N 51°57' E 004°05'0 0.0
2017-Aug-11 05:00N 51°57' E 004°05'0 0.0
2017-Aug-11 04:30N 51°57' E 004°05'0 0.0
2017-Aug-11 04:00N 51°57' E 004°05'0 0.0
2017-Aug-11 03:30N 51°57' E 004°05'0 0.0
2017-Aug-11 03:00N 51°57' E 004°05'0 0.0
2017-Aug-11 02:30N 51°57' E 004°05'0 0.0
2017-Aug-11 02:00N 51°57' E 004°05'0 0.0
2017-Aug-11 01:30N 51°57' E 004°05'0 0.0
2017-Aug-11 01:00N 51°57' E 004°05'0 0.0
2017-Aug-11 00:30N 51°57' E 004°05'0 0.0
2017-Aug-11 00:00N 51°57' E 004°05'0 0.0
2017-Aug-10 23:30N 51°57' E 004°05'0 0.0
2017-Aug-10 23:00N 51°57' E 004°05'0 0.0
2017-Aug-10 22:30N 51°57' E 004°05'0 0.0
2017-Aug-10 22:00N 51°57' E 004°05'0 0.0
2017-Aug-10 21:30N 51°57' E 004°05'0 0.0
2017-Aug-10 21:00N 51°57' E 004°05'0 0.0
2017-Aug-10 20:30N 51°57' E 004°05'0 0.0
2017-Aug-10 20:00N 51°57' E 004°05'0 0.0
2017-Aug-10 19:30N 51°57' E 004°05'0 0.0
2017-Aug-10 19:00N 51°57' E 004°05'0 0.0
2017-Aug-10 18:30N 51°57' E 004°05'0 0.0
2017-Aug-10 18:00N 51°57' E 004°05'0 0.0
2017-Aug-10 17:30N 51°57' E 004°05'0 0.0
2017-Aug-10 17:00N 51°57' E 004°05'0 0.0
2017-Aug-10 16:30N 51°57' E 004°05'0 0.0
2017-Aug-10 16:00N 51°57' E 004°05'0 0.0
2017-Aug-10 15:30N 51°57' E 004°05'1 1.7
2017-Aug-10 15:00N 51°58' E 004°05'2 4.4
2017-Aug-10 14:31N 51°58' E 004°09'510.3
2017-Aug-10 14:00N 51°55' E 004°15'3 6.0
2017-Aug-10 13:30N 51°53' E 004°19'0 0.5
2017-Aug-10 13:00N 51°52' E 004°19'0 0.0
2017-Aug-10 12:30N 51°52' E 004°19'0 0.0
2017-Aug-10 12:00N 51°52' E 004°19'0 0.0
2017-Aug-10 11:29N 51°52' E 004°19'0 0.0
2017-Aug-10 11:00N 51°52' E 004°19'0 0.0
2017-Aug-10 10:30N 51°52' E 004°19'0 0.0
2017-Aug-10 10:00N 51°52' E 004°19'0 0.0
2017-Aug-10 09:30N 51°52' E 004°19'0 0.0
2017-Aug-10 09:00N 51°52' E 004°19'0 0.0
2017-Aug-10 08:30N 51°52' E 004°19'0 0.0
2017-Aug-10 08:00N 51°52' E 004°19'0 0.0
2017-Aug-10 07:30N 51°52' E 004°19'0 0.0
2017-Aug-10 07:00N 51°52' E 004°19'0 0.0
2017-Aug-10 06:30N 51°52' E 004°19'0 0.0
2017-Aug-10 06:00N 51°52' E 004°19'0 0.0
2017-Aug-10 05:30N 51°52' E 004°19'0 0.0
2017-Aug-10 05:00N 51°52' E 004°19'0 0.0
2017-Aug-10 04:30N 51°52' E 004°19'0 0.0
2017-Aug-10 04:00N 51°52' E 004°19'0 0.0
2017-Aug-10 03:30N 51°52' E 004°19'0 0.0
2017-Aug-10 03:00N 51°52' E 004°19'0 0.0
2017-Aug-10 02:30N 51°52' E 004°19'0 0.0
2017-Aug-10 02:00N 51°52' E 004°19'0 0.0
2017-Aug-10 01:30N 51°52' E 004°19'0 0.0
2017-Aug-10 01:00N 51°52' E 004°19'0 0.0
2017-Aug-10 00:30N 51°52' E 004°19'0 0.0
2017-Aug-10 00:00N 51°52' E 004°19'0 0.0
2017-Aug-09 23:30N 51°52' E 004°19'0 0.0
2017-Aug-09 23:00N 51°52' E 004°19'0 0.0
2017-Aug-09 22:30N 51°52' E 004°19'0 0.0
2017-Aug-09 22:00N 51°52' E 004°19'0 0.0
2017-Aug-09 21:30N 51°52' E 004°19'1 1.8
2017-Aug-09 21:00N 51°53' E 004°19'3 5.7
2017-Aug-09 20:31N 51°55' E 004°15'3 6.3
2017-Aug-09 20:01N 51°57' E 004°11'3 6.1
2017-Aug-09 19:30N 51°59' E 004°07'3 7.0
2017-Aug-09 19:01N 51°60' E 004°01'3 6.7
2017-Aug-09 18:30N 51°60' E 003°56'4 7.7
2017-Aug-09 18:00N 52°00' E 003°50'3 6.4
2017-Aug-09 17:30N 52°03' E 003°46'4 7.8
2017-Aug-09 17:00N 52°06' E 003°44'2 0.2
2017-Aug-09 07:14N 52°08' E 003°43'0 0.0
2017-Aug-09 07:00N 52°08' E 003°43'0 0.0
2017-Aug-09 04:54N 52°08' E 003°43'0 0.0
2017-Aug-09 04:30N 52°08' E 003°43'0 0.0
2017-Aug-09 04:00N 52°08' E 003°43'0 0.0
2017-Aug-09 03:30N 52°08' E 003°43'0 0.0
2017-Aug-09 03:00N 52°08' E 003°43'0 0.0
2017-Aug-09 02:30N 52°08' E 003°43'0 0.0
2017-Aug-09 02:00N 52°08' E 003°43'0 0.1
2017-Aug-09 01:30N 52°08' E 003°43'0 0.1
2017-Aug-09 01:00N 52°08' E 003°43'  
Track history (hours):
 
Tides and Currents Weather Stations Pressure Air Temp Water Temp Dewpoint Dewpoint Depression Visibility Wind Speed Wind Dir Waves Ship Positions

Wilson Gaeta

Last reported at 2017-Aug-19 00:31 UTC. Time now 2017-Aug-19 09:29 UTC.
Position N 55°40' E 018°04'.

Length 88 m; draft 3.7 m.

Type: Ship. MMSI: 314237000.

Date/timePositionNaut miles runAvg speedWind from/ knotsBaromVisibWave heightAir tempDewpointWater temp
2017-Aug-19 00:31N 55°40' E 018°04'0 9.1
2017-Aug-19 00:30N 55°40' E 018°04'5 9.2
2017-Aug-19 00:00N 55°42' E 018°11'5 9.2
2017-Aug-18 23:30N 55°45' E 018°19'101 3.9
2017-Aug-17 21:16N 56°31' E 020°60'149 4.1
2017-Aug-16 08:33N 55°16' E 017°10'0 8.4
2017-Aug-16 08:30N 55°16' E 017°10'35 8.8
2017-Aug-16 04:30N 54°57' E 016°18'5 8.4
2017-Aug-16 03:50N 54°53' E 016°11'3 8.5
2017-Aug-16 03:30N 54°51' E 016°07'4 8.4
2017-Aug-16 03:00N 54°49' E 016°01'9 8.3
2017-Aug-16 01:54N 54°43' E 015°49'3 8.3
2017-Aug-16 01:30N 54°41' E 015°45'4 8.5
2017-Aug-16 01:00N 54°38' E 015°39'4 8.6
2017-Aug-16 00:30N 54°35' E 015°33'4 8.5
2017-Aug-16 00:00N 54°33' E 015°27'7 8.5
2017-Aug-15 23:10N 54°28' E 015°18'4 8.4
2017-Aug-15 22:41N 54°26' E 015°12'2 8.4
2017-Aug-15 22:29N 54°25' E 015°10'4 8.4
2017-Aug-15 21:58N 54°22' E 015°04'43 7.0
2017-Aug-15 15:52N 53°47' E 014°22'3 9.4
2017-Aug-15 15:30N 53°44' E 014°26'510.0
2017-Aug-15 15:00N 53°40' E 014°31'510.1
2017-Aug-15 14:30N 53°36' E 014°35'2 0.1
2017-Aug-14 02:49N 53°34' E 014°36'1 2.7
2017-Aug-14 02:30N 53°34' E 014°36'4 8.7
2017-Aug-14 02:00N 53°39' E 014°34'5 9.3
2017-Aug-14 01:30N 53°42' E 014°29'5 9.8
2017-Aug-14 01:01N 53°46' E 014°24'79 8.3
2017-Aug-13 15:32N 54°41' E 012°47'010.4
2017-Aug-13 15:31N 54°41' E 012°46'510.2
2017-Aug-13 15:00N 54°39' E 012°38'1810.3
2017-Aug-13 13:17N 54°28' E 012°14'310.6
2017-Aug-13 13:00N 54°25' E 012°11'5 9.8
2017-Aug-13 12:31N 54°24' E 012°03'810.0
2017-Aug-13 11:40N 54°25' E 011°48'2 9.9
2017-Aug-13 11:30N 54°25' E 011°46'510.3
2017-Aug-13 11:01N 54°27' E 011°38'510.6
2017-Aug-13 10:31N 54°29' E 011°30'510.6
2017-Aug-13 10:00N 54°32' E 011°21'510.6
2017-Aug-13 09:30N 54°34' E 011°13'510.1
2017-Aug-13 09:00N 54°35' E 011°05'510.4
2017-Aug-13 08:30N 54°35' E 010°56'510.2
2017-Aug-13 08:00N 54°34' E 010°47'510.1
2017-Aug-13 07:30N 54°34' E 010°38'510.0
2017-Aug-13 07:00N 54°32' E 010°30'48 6.5
2017-Aug-12 23:40N 54°08' E 009°20'2 7.5
2017-Aug-12 23:27N 54°06' E 009°20'3 7.6
2017-Aug-12 23:00N 54°03' E 009°18'4 8.2
2017-Aug-12 22:30N 53°59' E 009°16'4 7.1
2017-Aug-12 22:00N 53°56' E 009°13'3 6.8
2017-Aug-12 21:31N 53°54' E 009°09'1 1.6
2017-Aug-12 21:01N 53°53' E 009°08'3 6.4
2017-Aug-12 20:30N 53°52' E 009°02'3 6.1
2017-Aug-12 20:00N 53°51' E 008°58'3 6.4
2017-Aug-12 19:30N 53°50' E 008°52'3 6.6
2017-Aug-12 19:00N 53°50' E 008°47'3 6.7
2017-Aug-12 18:30N 53°53' E 008°43'4 7.1
2017-Aug-12 18:00N 53°56' E 008°40'3 6.9
2017-Aug-12 17:30N 53°58' E 008°35'4 7.5
2017-Aug-12 16:57N 53°59' E 008°28'4 7.8
2017-Aug-12 16:30N 53°59' E 008°22'5 8.6
2017-Aug-12 15:59N 53°59' E 008°14'4 9.3
2017-Aug-12 15:30N 53°59' E 008°07'5 9.8
2017-Aug-12 15:00N 53°58' E 007°59'9511.1
2017-Aug-12 06:27N 53°33' E 005°24'1210.1
2017-Aug-12 05:17N 53°29' E 005°05'3 9.5
2017-Aug-12 05:00N 53°28' E 005°01'5 9.4
2017-Aug-12 04:31N 53°26' E 004°54'54 8.8
2017-Aug-11 22:21N 52°41' E 004°04'3 9.1
2017-Aug-11 21:59N 52°38' E 004°02'4 9.3
2017-Aug-11 21:30N 52°34' E 003°58'5 9.4
2017-Aug-11 20:59N 52°30' E 003°55'510.0
2017-Aug-11 20:29N 52°25' E 003°53'510.3
2017-Aug-11 19:58N 52°20' E 003°52'510.4
2017-Aug-11 19:29N 52°15' E 003°53'510.7
2017-Aug-11 19:01N 52°10' E 003°54'510.3
2017-Aug-11 18:30N 52°05' E 003°57'510.1
2017-Aug-11 18:00N 52°00' E 004°02'4 8.3
2017-Aug-11 17:30N 51°57' E 004°05'0 0.3
2017-Aug-11 17:00N 51°57' E 004°05'0 0.0
2017-Aug-11 16:30N 51°57' E 004°05'0 0.0
2017-Aug-11 16:00N 51°57' E 004°05'0 0.0
2017-Aug-11 15:30N 51°57' E 004°05'0 0.0
2017-Aug-11 15:00N 51°57' E 004°05'0 0.0
2017-Aug-11 14:30N 51°57' E 004°05'0 0.0
2017-Aug-11 13:30N 51°57' E 004°05'0 0.0
2017-Aug-11 13:00N 51°57' E 004°05'0 0.0
2017-Aug-11 12:30N 51°57' E 004°05'0 0.0
2017-Aug-11 12:00N 51°57' E 004°05'0 0.0
2017-Aug-11 11:30N 51°57' E 004°05'0 0.0
2017-Aug-11 11:00N 51°57' E 004°05'0 0.0
2017-Aug-11 10:30N 51°57' E 004°05'0 0.0
2017-Aug-11 10:00N 51°57' E 004°05'0 0.0
2017-Aug-11 09:30N 51°57' E 004°05'0 0.0
2017-Aug-11 09:00N 51°57' E 004°05'0 0.0
2017-Aug-11 08:30N 51°57' E 004°05'0 0.0
2017-Aug-11 08:00N 51°57' E 004°05'0 0.0
2017-Aug-11 07:30N 51°57' E 004°05'0 0.0
2017-Aug-11 07:00N 51°57' E 004°05'0 0.0
2017-Aug-11 06:30N 51°57' E 004°05'0 0.0
2017-Aug-11 05:59N 51°57' E 004°05'0 0.0
2017-Aug-11 05:30N 51°57' E 004°05'0 0.0
2017-Aug-11 05:00N 51°57' E 004°05'0 0.0
2017-Aug-11 04:30N 51°57' E 004°05'0 0.0
2017-Aug-11 04:00N 51°57' E 004°05'0 0.0
2017-Aug-11 03:30N 51°57' E 004°05'0 0.0
2017-Aug-11 03:00N 51°57' E 004°05'0 0.0
2017-Aug-11 02:30N 51°57' E 004°05'0 0.0
2017-Aug-11 02:00N 51°57' E 004°05'0 0.0
2017-Aug-11 01:30N 51°57' E 004°05'0 0.0
2017-Aug-11 01:00N 51°57' E 004°05'0 0.0
2017-Aug-11 00:30N 51°57' E 004°05'0 0.0
2017-Aug-11 00:00N 51°57' E 004°05'0 0.0
2017-Aug-10 23:30N 51°57' E 004°05'0 0.0
2017-Aug-10 23:00N 51°57' E 004°05'0 0.0
2017-Aug-10 22:30N 51°57' E 004°05'0 0.0
2017-Aug-10 22:00N 51°57' E 004°05'0 0.0
2017-Aug-10 21:30N 51°57' E 004°05'0 0.0
2017-Aug-10 21:00N 51°57' E 004°05'0 0.0
2017-Aug-10 20:30N 51°57' E 004°05'0 0.0
2017-Aug-10 20:00N 51°57' E 004°05'0 0.0
2017-Aug-10 19:30N 51°57' E 004°05'0 0.0
2017-Aug-10 19:00N 51°57' E 004°05'0 0.0
2017-Aug-10 18:30N 51°57' E 004°05'0 0.0
2017-Aug-10 18:00N 51°57' E 004°05'0 0.0
2017-Aug-10 17:30N 51°57' E 004°05'0 0.0
2017-Aug-10 17:00N 51°57' E 004°05'0 0.0
2017-Aug-10 16:30N 51°57' E 004°05'0 0.0
2017-Aug-10 16:00N 51°57' E 004°05'0 0.0
2017-Aug-10 15:30N 51°57' E 004°05'1 1.7
2017-Aug-10 15:00N 51°58' E 004°05'2 4.4
2017-Aug-10 14:31N 51°58' E 004°09'510.3
2017-Aug-10 14:00N 51°55' E 004°15'3 6.0
2017-Aug-10 13:30N 51°53' E 004°19'0 0.5
2017-Aug-10 13:00N 51°52' E 004°19'0 0.0
2017-Aug-10 12:30N 51°52' E 004°19'0 0.0
2017-Aug-10 12:00N 51°52' E 004°19'0 0.0
2017-Aug-10 11:29N 51°52' E 004°19'0 0.0
2017-Aug-10 11:00N 51°52' E 004°19'0 0.0
2017-Aug-10 10:30N 51°52' E 004°19'0 0.0
2017-Aug-10 10:00N 51°52' E 004°19'0 0.0
2017-Aug-10 09:30N 51°52' E 004°19'0 0.0
2017-Aug-10 09:00N 51°52' E 004°19'0 0.0
2017-Aug-10 08:30N 51°52' E 004°19'0 0.0
2017-Aug-10 08:00N 51°52' E 004°19'0 0.0
2017-Aug-10 07:30N 51°52' E 004°19'0 0.0
2017-Aug-10 07:00N 51°52' E 004°19'0 0.0
2017-Aug-10 06:30N 51°52' E 004°19'0 0.0
2017-Aug-10 06:00N 51°52' E 004°19'0 0.0
2017-Aug-10 05:30N 51°52' E 004°19'0 0.0
2017-Aug-10 05:00N 51°52' E 004°19'0 0.0
2017-Aug-10 04:30N 51°52' E 004°19'0 0.0
2017-Aug-10 04:00N 51°52' E 004°19'0 0.0
2017-Aug-10 03:30N 51°52' E 004°19'0 0.0
2017-Aug-10 03:00N 51°52' E 004°19'0 0.0
2017-Aug-10 02:30N 51°52' E 004°19'0 0.0
2017-Aug-10 02:00N 51°52' E 004°19'0 0.0
2017-Aug-10 01:30N 51°52' E 004°19'0 0.0
2017-Aug-10 01:00N 51°52' E 004°19'0 0.0
2017-Aug-10 00:30N 51°52' E 004°19'0 0.0
2017-Aug-10 00:00N 51°52' E 004°19'0 0.0
2017-Aug-09 23:30N 51°52' E 004°19'0 0.0
2017-Aug-09 23:00N 51°52' E 004°19'0 0.0
2017-Aug-09 22:30N 51°52' E 004°19'0 0.0
2017-Aug-09 22:00N 51°52' E 004°19'0 0.0
2017-Aug-09 21:30N 51°52' E 004°19'1 1.8
2017-Aug-09 21:00N 51°53' E 004°19'3 5.7
2017-Aug-09 20:31N 51°55' E 004°15'3 6.3
2017-Aug-09 20:01N 51°57' E 004°11'3 6.1
2017-Aug-09 19:30N 51°59' E 004°07'3 7.0
2017-Aug-09 19:01N 51°60' E 004°01'3 6.7
2017-Aug-09 18:30N 51°60' E 003°56'4 7.7
2017-Aug-09 18:00N 52°00' E 003°50'3 6.4
2017-Aug-09 17:30N 52°03' E 003°46'4 7.8
2017-Aug-09 17:00N 52°06' E 003°44'2 0.2
2017-Aug-09 07:14N 52°08' E 003°43'0 0.0
2017-Aug-09 07:00N 52°08' E 003°43'0 0.0
2017-Aug-09 04:54N 52°08' E 003°43'0 0.0
2017-Aug-09 04:30N 52°08' E 003°43'0 0.0
2017-Aug-09 04:00N 52°08' E 003°43'0 0.0
2017-Aug-09 03:30N 52°08' E 003°43'0 0.0
2017-Aug-09 03:00N 52°08' E 003°43'0 0.0
2017-Aug-09 02:30N 52°08' E 003°43'0 0.0
2017-Aug-09 02:00N 52°08' E 003°43'0 0.1
2017-Aug-09 01:30N 52°08' E 003°43'0 0.1
2017-Aug-09 01:00N 52°08' E 003°43'  

Dump ship's entire track history